Time;durP1;ratioP1;P1;durP2;ratioP2;P2;SDS_P1;SDS_P2;PMS_P1;PMS_P2;Temp;Humidity;BMP_temperature;BMP_pressure;BME280_temperature;BME280_humidity;BME280_pressure;Samples;Min_cycle;Max_cycle;Signal;HPM_P1;HPM_P2
2021/12/13 00:01:02;;;;;;;4.38;3.33;;;7.60;63.20;;;5.83;67.83;101946.97;8387537;28;20107;-91
2021/12/13 00:05:35;;;;;;;4.85;3.85;;;7.60;63.30;;;5.79;68.16;101929.78;8403973;28;20122;-91
2021/12/13 00:10:04;;;;;;;3.80;3.47;;;7.60;63.40;;;5.91;67.98;101944.25;8407325;28;20123;-90
2021/12/13 00:14:33;;;;;;;3.35;3.05;;;7.60;63.40;;;5.80;68.19;101920.25;8417123;28;20115;-91
2021/12/13 00:19:01;;;;;;;4.40;3.70;;;7.70;63.50;;;5.90;68.03;101929.59;8387453;28;20465;-90
2021/12/13 00:23:31;;;;;;;4.00;3.55;;;7.60;63.40;;;5.91;67.97;101926.13;8401751;28;20111;-90
2021/12/13 00:28:07;;;;;;;4.18;3.55;;;7.70;64.30;;;5.85;67.77;101918.44;8386362;28;20457;-91
2021/12/13 00:32:41;;;;;;;4.00;3.63;;;7.70;63.70;;;6.00;68.11;101935.53;8398922;28;20111;-90
2021/12/13 00:37:21;;;;;;;4.85;3.60;;;7.80;63.70;;;6.01;68.23;101940.69;8391450;28;20095;-91
2021/12/13 00:41:46;;;;;;;5.53;4.00;;;7.80;63.70;;;6.03;68.11;101936.31;8409469;28;20536;-90
2021/12/13 00:46:13;;;;;;;4.18;3.78;;;7.90;63.90;;;6.05;68.13;101934.56;8386075;28;20130;-90
2021/12/13 00:50:44;;;;;;;4.18;3.72;;;7.80;64.00;;;6.05;68.17;101931.97;8414291;28;20119;-91
2021/12/13 00:55:23;;;;;;;4.95;3.65;;;7.90;64.00;;;6.15;68.22;101951.66;8408223;28;20583;-91
2021/12/13 01:00:04;;;;;;;4.18;3.67;;;7.90;64.10;;;6.17;67.93;101949.91;8411849;28;20122;-90
2021/12/13 01:04:58;;;;;;;4.35;3.65;;;8.00;64.20;;;6.22;68.06;101961.97;8399198;28;20107;-91
2021/12/13 01:10:10;;;;;;;4.13;3.75;;;8.00;64.40;;;6.14;68.35;101954.31;8386408;28;20111;-91
2021/12/13 01:15:14;;;;;;;4.20;3.38;;;8.10;64.40;;;6.28;68.31;101983.44;8401084;28;20126;-91
2021/12/13 01:24:40;;;;;;;4.43;3.75;;;8.10;64.20;;;6.42;68.55;102002.22;8406547;28;20089;-90
2021/12/13 01:29:20;;;;;;;4.82;3.28;;;8.20;64.30;;;6.46;68.40;102003.03;8397057;28;20494;-91
2021/12/13 01:33:45;;;;;;;5.18;3.97;;;8.20;64.30;;;6.44;68.52;101994.41;8394627;28;20119;-91
2021/12/13 01:38:14;;;;;;;4.40;3.97;;;8.10;64.00;;;6.41;68.39;101989.28;8399429;28;20136;-90
2021/12/13 01:42:37;;;;;;;4.53;3.88;;;8.30;64.20;;;6.48;67.95;101993.50;8385553;28;20115;-90
2021/12/13 01:47:17;;;;;;;4.88;3.58;;;8.30;64.20;;;6.53;68.46;102003.78;8399348;28;20121;-90
2021/12/13 01:51:39;;;;;;;3.85;3.45;;;8.30;64.40;;;6.55;68.32;101996.81;8383819;28;20119;-90
2021/12/13 01:56:11;;;;;;;5.85;4.85;;;8.30;64.40;;;6.50;68.21;101983.06;8393164;28;20119;-90
2021/12/13 02:01:09;;;;;;;5.07;3.95;;;8.30;64.30;;;6.56;68.60;101995.94;8375200;28;20111;-90
2021/12/13 02:05:32;;;;;;;4.03;3.63;;;8.40;64.30;;;6.58;68.43;101996.75;8386011;28;20111;-90
2021/12/13 02:09:57;;;;;;;5.40;4.30;;;8.40;64.30;;;6.58;68.40;101991.56;8393096;28;20111;-90
2021/12/13 02:14:26;;;;;;;5.07;4.45;;;8.40;64.30;;;6.55;67.99;101989.03;8414035;28;20114;-90
2021/12/13 02:18:56;;;;;;;5.60;4.03;;;8.50;64.50;;;6.78;68.31;102024.97;8386191;28;20115;-90
2021/12/13 02:23:20;;;;;;;5.30;4.10;;;8.40;64.30;;;6.75;68.62;102012.03;8407875;28;20121;-90
2021/12/13 02:27:51;;;;;;;4.93;4.00;;;8.50;64.20;;;6.81;68.08;102025.75;8422261;28;20680;-90
2021/12/13 02:32:13;;;;;;;5.05;4.50;;;8.50;64.10;;;6.82;68.09;102029.19;8428084;28;20123;-91
2021/12/13 02:36:41;;;;;;;4.93;3.92;;;8.60;64.00;;;6.79;67.89;102017.13;8433768;28;20463;-91
2021/12/13 02:41:07;;;;;;;5.18;4.03;;;8.60;64.00;;;6.82;68.42;102011.88;8404133;28;20148;-91
2021/12/13 02:45:42;;;;;;;5.20;4.25;;;8.50;63.90;;;6.76;68.23;102008.56;8391054;28;20556;-91
2021/12/13 02:50:32;;;;;;;4.53;4.05;;;8.60;64.10;;;6.72;68.09;102005.13;8394988;28;20122;-90
2021/12/13 02:55:03;;;;;;;5.25;3.53;;;8.60;64.10;;;6.68;68.41;101995.72;8394076;28;20120;-91
2021/12/13 02:59:30;;;;;;;4.43;3.83;;;8.60;63.80;;;6.81;68.72;102024.91;8401691;28;20118;-91
2021/12/13 03:03:57;;;;;;;5.90;4.57;;;8.60;63.70;;;6.74;68.32;102020.69;8394588;28;20107;-90
2021/12/13 03:08:31;;;;;;;5.75;4.70;;;8.60;63.70;;;6.74;68.52;102023.28;8390534;28;20560;-90
2021/12/13 03:12:53;;;;;;;4.85;4.05;;;8.50;63.70;;;6.65;68.17;102007.00;8380927;28;20131;-90
2021/12/13 03:17:36;;;;;;;5.10;4.25;;;8.60;63.70;;;6.77;68.37;102031.88;8391040;28;20125;-90
2021/12/13 03:22:21;;;;;;;5.53;4.40;;;8.50;63.80;;;6.79;68.62;102035.31;8391499;28;20119;-90
2021/12/13 03:27:04;;;;;;;5.25;4.70;;;8.50;63.80;;;6.75;68.53;102020.69;8398177;28;20110;-91
2021/12/13 03:31:44;;;;;;;5.63;4.72;;;8.40;63.80;;;6.75;68.44;102028.47;8383803;28;20115;-91
2021/12/13 03:36:12;;;;;;;7.20;4.80;;;8.50;63.80;;;6.86;68.05;102046.44;8390393;28;20115;-90
2021/12/13 03:40:34;;;;;;;5.60;4.13;;;8.60;63.90;;;6.78;68.52;102031.00;8388138;28;20548;-90
2021/12/13 03:45:02;;;;;;;5.35;4.20;;;8.60;63.90;;;6.88;68.06;102052.44;8403205;28;20548;-91
2021/12/13 03:49:25;;;;;;;6.07;4.50;;;8.60;64.00;;;6.79;68.27;102037.91;8388981;28;20127;-91
2021/12/13 03:53:51;;;;;;;6.72;4.70;;;8.50;63.80;;;6.86;68.13;102043.84;8381664;28;20123;-91
2021/12/13 03:58:18;;;;;;;6.07;4.63;;;8.60;63.90;;;6.88;68.09;102055.03;8402120;28;20120;-92
2021/12/13 04:02:41;;;;;;;6.13;4.32;;;8.60;64.00;;;6.85;68.47;102055.09;8395380;28;20115;-91
2021/12/13 04:07:24;;;;;;;6.38;4.22;;;8.60;63.80;;;6.81;68.49;102056.91;8382943;28;20115;-91
2021/12/13 04:11:47;;;;;;;4.85;4.10;;;8.60;63.90;;;6.94;67.88;102069.66;8380119;28;20465;-91
2021/12/13 04:16:48;;;;;;;5.90;4.55;;;8.50;63.70;;;6.86;68.10;102072.41;8381813;28;20123;-91
2021/12/13 04:21:11;;;;;;;6.43;4.05;;;8.60;63.90;;;6.92;68.43;102074.91;8390960;28;20111;-91
2021/12/13 04:25:39;;;;;;;5.15;4.28;;;8.60;63.70;;;6.78;68.31;102049.19;8398351;28;20120;-91
2021/12/13 04:30:24;;;;;;;5.95;4.32;;;8.60;63.70;;;6.92;68.45;102071.44;8389270;28;20468;-91
2021/12/13 04:34:49;;;;;;;8.25;4.75;;;8.60;63.70;;;6.91;68.24;102075.75;8379124;28;20115;-91
2021/12/13 04:39:36;;;;;;;6.55;4.75;;;8.60;63.70;;;6.90;68.15;102071.47;8384956;28;20119;-91
2021/12/13 04:44:05;;;;;;;;;;;8.60;63.80;;;6.91;68.46;102078.34;8418979;28;20445;-91
2021/12/13 04:48:33;;;;;;;4.50;3.33;;;8.60;63.70;;;6.78;68.07;102050.94;8401631;28;19995;-91
2021/12/13 04:52:56;;;;;;;6.70;4.88;;;8.50;63.40;;;6.76;68.35;102048.34;8389066;28;20107;-91
2021/12/13 04:57:20;;;;;;;6.45;4.47;;;9.00;64.00;;;6.91;68.03;102067.13;8401750;28;20461;-91
2021/12/13 05:01:47;;;;;;;8.30;5.22;;;8.60;63.70;;;6.74;68.08;102041.47;8408012;28;20120;-91
2021/12/13 05:06:21;;;;;;;6.45;4.47;;;8.60;63.80;;;6.90;68.09;102079.25;8406806;22;20134;-85
2021/12/13 05:10:47;;;;;;;8.38;4.75;;;8.70;63.90;;;6.94;68.35;102086.13;8424305;28;20042;-84
2021/12/13 05:15:12;;;;;;;5.72;4.43;;;8.60;63.80;;;6.92;68.03;102076.63;8411035;28;20154;-84
2021/12/13 05:19:45;;;;;;;6.32;4.68;;;8.60;63.90;;;6.89;68.28;102074.94;8426160;28;20032;-83
2021/12/13 05:24:16;;;;;;;7.85;5.25;;;8.70;64.00;;;6.94;68.54;102093.91;8426827;28;20113;-83
2021/12/13 05:28:50;;;;;;;11.75;4.75;;;8.70;64.00;;;6.92;68.66;102085.28;8412558;28;20036;-83
2021/12/13 05:33:16;;;;;;;6.45;4.22;;;8.70;64.70;;;6.90;68.19;102078.41;8423986;28;20696;-83
2021/12/13 05:37:45;;;;;;;8.57;5.85;;;8.70;63.90;;;6.95;68.77;102085.22;8426772;28;20024;-83
2021/12/13 05:42:11;;;;;;;8.25;5.55;;;8.70;64.00;;;6.99;68.43;102097.25;8443281;28;20146;-82
2021/12/13 05:46:40;;;;;;;7.20;5.30;;;8.70;63.90;;;7.00;68.45;102098.97;8445730;28;20040;-84
2021/12/13 05:51:42;;;;;;;9.35;6.25;;;8.70;64.00;;;6.94;68.14;102106.00;8449513;28;20138;-83
2021/12/13 05:56:17;;;;;;;8.32;5.70;;;8.60;64.00;;;6.98;68.10;102112.88;8446744;28;20040;-83
2021/12/13 06:00:41;;;;;;;8.02;5.78;;;8.70;64.00;;;6.95;68.75;102118.97;8442772;28;20119;-84
2021/12/13 06:05:14;;;;;;;7.45;5.10;;;8.70;63.90;;;6.93;68.49;102112.09;8444719;28;20107;-84
2021/12/13 06:10:04;;;;;;;7.18;5.03;;;8.70;63.90;;;6.96;68.23;102125.03;8433584;28;20457;-83
2021/12/13 06:14:27;;;;;;;8.15;5.10;;;8.70;64.00;;;6.90;68.60;102114.75;8443263;28;20114;-84
2021/12/13 06:18:58;;;;;;;9.43;5.25;;;8.70;63.90;;;7.00;68.65;102139.69;8434927;28;20518;-84
2021/12/13 06:23:33;;;;;;;8.75;5.75;;;8.70;64.00;;;6.96;68.24;102132.81;8434461;27;20028;-81
2021/12/13 06:27:59;;;;;;;10.73;6.07;;;8.70;64.00;;;6.94;68.60;102127.66;8418297;28;20044;-82
2021/12/13 06:33:07;;;;;;;8.07;5.13;;;8.70;64.00;;;6.96;68.38;102131.06;8412642;28;20027;-82
2021/12/13 06:37:35;;;;;;;5.97;4.20;;;8.70;64.20;;;6.94;68.21;102131.97;8433223;28;20036;-84
2021/12/13 06:42:05;;;;;;;6.65;4.45;;;8.70;64.20;;;7.00;68.01;102145.72;8425781;28;20024;-83
2021/12/13 06:46:35;;;;;;;8.05;4.90;;;8.70;64.20;;;7.00;68.05;102150.91;8428517;28;20442;-84
2021/12/13 06:50:59;;;;;;;6.88;5.00;;;8.70;64.20;;;6.98;68.05;102152.69;8414451;28;20109;-81
2021/12/13 06:55:21;;;;;;;5.75;4.05;;;8.70;64.10;;;6.97;68.46;102156.19;8445604;27;20364;-82
2021/12/13 07:00:11;;;;;;;7.88;5.32;;;8.70;63.90;;;7.00;68.55;102176.91;8448136;28;20042;-81
2021/12/13 07:04:56;;;;;;;7.05;4.28;;;8.70;64.00;;;6.93;68.21;102172.69;8411142;28;20036;-81
2021/12/13 07:09:23;;;;;;;5.30;3.97;;;8.60;63.60;;;6.93;68.56;102179.63;8430724;28;20027;-87
2021/12/13 07:14:00;;;;;;;4.90;3.60;;;8.60;63.40;;;6.90;68.62;102184.88;8435534;28;20510;-82
2021/12/13 07:18:37;;;;;;;4.55;3.58;;;8.60;63.50;;;6.89;67.97;102204.78;8427858;28;20040;-83
2021/12/13 07:22:59;;;;;;;6.47;3.67;;;8.60;63.50;;;6.81;67.97;102183.28;8437191;28;20028;-83
2021/12/13 07:27:33;;;;;;;6.53;4.05;;;8.50;63.50;;;6.84;68.36;102191.00;8450729;28;20115;-82
2021/12/13 07:32:17;;;;;;;4.57;3.35;;;8.50;63.70;;;6.89;68.49;102203.94;8446994;28;20119;-80
2021/12/13 07:36:40;;;;;;;5.85;4.13;;;8.60;63.90;;;6.79;67.93;102192.81;8434019;28;20122;-83
2021/12/13 07:41:06;;;;;;;6.72;4.10;;;8.50;63.60;;;6.75;68.35;102202.41;8425206;28;20120;-82
2021/12/13 07:46:09;;;;;;;5.80;4.05;;;8.50;63.40;;;6.75;68.66;102219.69;8431895;28;20122;-80
2021/12/13 07:50:31;;;;;;;6.70;4.47;;;8.40;63.30;;;6.73;68.00;102218.88;8416495;28;20563;-78
2021/12/13 07:54:53;;;;;;;7.70;4.00;;;8.40;64.10;;;6.65;68.34;102204.28;8408728;28;20115;-81
2021/12/13 07:59:22;;;;;;;8.07;5.07;;;8.40;63.60;;;6.79;67.93;102229.16;8441079;28;20032;-81
2021/12/13 08:03:52;;;;;;;6.90;4.22;;;8.40;63.70;;;6.75;68.50;102227.47;8424523;28;20042;-81
2021/12/13 08:08:27;;;;;;;7.47;5.35;;;8.40;63.90;;;6.60;68.27;102208.69;8434296;28;20595;-81
2021/12/13 08:12:54;;;;;;;9.20;5.32;;;8.50;64.10;;;6.65;68.28;102219.00;8436055;28;20145;-81
2021/12/13 08:17:23;;;;;;;9.63;5.78;;;8.50;64.00;;;6.77;68.18;102225.72;8433059;28;20042;-80
2021/12/13 08:21:57;;;;;;;10.15;6.07;;;8.50;64.10;;;6.77;68.14;102226.59;8437302;28;20357;-81
2021/12/13 08:26:39;;;;;;;9.07;5.60;;;8.50;64.10;;;6.81;68.21;102233.47;8429156;28;20110;-81
2021/12/13 08:31:05;;;;;;;9.77;6.18;;;8.50;64.10;;;6.81;68.59;102228.28;8417531;28;20119;-82
2021/12/13 08:35:45;;;;;;;9.60;4.78;;;8.50;64.10;;;6.85;68.71;102229.06;8429554;28;20444;-80
2021/12/13 08:40:21;;;;;;;9.10;5.60;;;8.50;64.90;;;6.77;68.84;102228.31;8428609;28;20047;-80
2021/12/13 08:44:57;;;;;;;10.15;6.35;;;8.60;64.30;;;6.91;68.49;102247.13;8440940;28;20130;-79
2021/12/13 08:49:33;;;;;;;10.73;7.05;;;8.60;64.30;;;6.94;68.71;102254.91;8438697;28;20131;-80
2021/12/13 08:54:10;;;;;;;13.68;7.57;;;8.60;64.30;;;6.96;68.25;102257.47;8446844;28;20051;-80
2021/12/13 08:58:32;;;;;;;12.00;8.13;;;8.60;64.40;;;6.93;68.34;102247.13;8438264;28;20404;-79
2021/12/13 09:03:17;;;;;;;14.93;8.63;;;8.60;64.30;;;6.96;68.73;102250.53;8435912;28;20358;-77
2021/12/13 09:08:14;;;;;;;12.77;8.30;;;8.60;64.50;;;6.87;68.42;102238.56;8436513;28;20126;-81
2021/12/13 09:12:43;;;;;;;14.13;8.68;;;8.70;64.70;;;7.05;68.67;102257.34;8432881;28;20035;-79
2021/12/13 09:17:33;;;;;;;13.40;7.30;;;8.80;64.60;;;7.09;69.06;102262.44;8427838;28;20399;-80
2021/12/13 09:22:21;;;;;;;10.55;6.63;;;8.70;64.70;;;7.12;68.20;102263.28;8433937;28;20119;-81
2021/12/13 09:26:42;;;;;;;11.20;6.28;;;8.80;64.80;;;7.07;68.53;102239.97;8446631;28;20147;-80
2021/12/13 09:31:11;;;;;;;8.98;5.45;;;8.80;64.80;;;7.14;68.51;102252.00;8434825;28;20028;-81
2021/12/13 09:35:41;;;;;;;6.85;4.50;;;8.90;65.00;;;7.21;68.44;102253.63;8449603;28;20110;-80
2021/12/13 09:40:04;;;;;;;7.93;4.95;;;8.90;65.10;;;7.23;68.90;102244.03;8438790;28;20035;-81
2021/12/13 09:44:39;;;;;;;8.98;4.75;;;9.00;65.10;;;7.25;68.86;102244.88;8446306;28;20118;-79
2021/12/13 09:49:30;;;;;;;8.98;5.40;;;9.00;65.20;;;7.35;68.63;102255.13;8433042;28;20115;-81
2021/12/13 09:53:59;;;;;;;9.82;5.82;;;9.00;65.40;;;7.37;68.70;102245.53;8415531;28;20122;-81
2021/12/13 09:58:42;;;;;;;6.22;4.75;;;9.10;65.60;;;7.45;69.02;102260.13;8427008;28;20435;-81
2021/12/13 10:03:12;;;;;;;7.18;4.55;;;9.10;65.70;;;7.52;68.89;102255.66;8415508;28;20106;-79
2021/12/13 10:07:38;;;;;;;7.43;4.97;;;9.20;65.70;;;7.47;68.52;102245.34;8444226;28;20510;-79
2021/12/13 10:12:23;;;;;;;9.32;5.45;;;9.20;65.80;;;7.62;68.70;102254.63;8436706;28;20138;-79
2021/12/13 10:16:49;;;;;;;12.82;5.03;;;9.30;66.30;;;7.68;68.83;102264.06;8415537;28;20471;-79
2021/12/13 10:21:24;;;;;;;7.85;4.85;;;9.30;65.90;;;7.69;68.97;102265.75;8447638;28;20130;-81
2021/12/13 10:25:51;;;;;;;6.72;4.53;;;9.30;65.90;;;7.68;68.77;102254.50;8436808;28;20038;-80
2021/12/13 10:30:25;;;;;;;6.00;4.10;;;9.40;65.80;;;7.77;69.01;102269.06;8433632;28;20471;-80
2021/12/13 10:34:53;;;;;;;7.50;4.55;;;9.40;65.80;;;7.81;68.64;102262.09;8445270;28;20261;-80
2021/12/13 10:39:25;;;;;;;8.45;5.97;;;9.50;65.80;;;7.81;68.82;102247.34;8445481;28;20042;-80
2021/12/13 10:43:53;;;;;;;7.63;4.95;;;9.50;66.00;;;7.86;69.12;102237.72;8452890;28;20036;-78
2021/12/13 10:48:18;;;;;;;8.35;5.75;;;9.60;66.00;;;7.81;69.06;102231.75;8445216;28;20499;-80
2021/12/13 10:52:44;;;;;;;7.63;5.15;;;9.60;65.90;;;7.91;68.85;102241.09;8452085;28;20035;-78
2021/12/13 10:57:18;;;;;;;7.97;5.32;;;9.60;65.90;;;7.88;69.07;102219.47;8448691;28;20045;-80
2021/12/13 11:01:47;;;;;;;6.70;4.10;;;9.70;66.10;;;8.01;69.08;102235.69;8443982;28;20059;-80
2021/12/13 11:06:14;;;;;;;6.10;4.55;;;9.70;66.10;;;8.04;68.69;102238.22;8439485;28;20037;-80
2021/12/13 11:10:57;;;;;;;6.57;3.90;;;9.80;66.20;;;8.09;69.02;102239.84;8448788;28;20042;-80
2021/12/13 11:15:26;;;;;;;4.80;3.58;;;9.80;66.20;;;8.03;69.14;102223.50;8446402;28;20110;-78
2021/12/13 11:19:55;;;;;;;4.25;3.72;;;9.80;66.30;;;8.18;69.12;102246.59;8434071;28;20039;-77
2021/12/13 11:24:23;;;;;;;4.85;4.10;;;9.80;66.30;;;8.15;69.04;102234.50;8441500;28;20122;-78
2021/12/13 11:28:45;;;;;;;5.55;4.45;;;9.90;66.30;;;8.24;69.29;102243.03;8450747;28;20043;-78
2021/12/13 11:33:10;;;;;;;5.15;3.97;;;9.90;66.30;;;8.30;69.16;102241.16;8433933;28;20814;-78
2021/12/13 11:38:16;;;;;;;4.43;3.88;;;9.90;66.50;;;8.25;69.38;102239.53;8446733;28;20047;-80
2021/12/13 11:43:19;;;;;;;6.25;4.18;;;10.00;66.80;;;8.36;69.17;102243.59;8437711;28;20303;-78
2021/12/13 11:48:18;;;;;;;5.50;4.38;;;10.00;66.70;;;8.41;69.28;102246.16;8444568;28;20049;-82
2021/12/13 11:53:37;;;;;;;5.63;4.32;;;10.10;66.50;;;8.45;69.13;102242.56;8446671;28;20038;-82
2021/12/13 11:58:59;;;;;;;3.58;3.25;;;10.10;66.70;;;8.46;69.29;102238.25;8446162;28;20035;-83
2021/12/13 12:04:06;;;;;;;3.97;3.28;;;10.20;66.90;;;8.51;69.19;102237.25;8446974;28;20126;-80
2021/12/13 12:09:22;;;;;;;3.45;3.15;;;10.20;66.80;;;8.53;69.33;102232.00;8437083;28;20555;-80
2021/12/13 12:14:11;;;;;;;4.78;3.65;;;10.20;66.80;;;8.60;69.42;102236.19;8438551;28;20123;-80
2021/12/13 12:18:39;;;;;;;3.42;2.97;;;10.20;66.60;;;8.63;69.26;102228.31;8442342;28;20035;-80
2021/12/13 12:23:07;;;;;;;3.17;2.65;;;10.30;66.70;;;8.62;69.29;102227.44;8443196;28;20126;-80
2021/12/13 12:27:35;;;;;;;5.80;3.28;;;10.40;66.80;;;8.73;69.08;102227.22;8442620;28;20490;-84
2021/12/13 12:32:11;;;;;;;4.35;3.92;;;10.40;66.80;;;8.76;69.07;102224.53;8429522;28;20124;-86
2021/12/13 12:37:15;;;;;;;5.40;4.13;;;10.50;66.90;;;8.74;69.39;102220.25;8438263;28;20110;-81
2021/12/13 12:42:05;;;;;;;4.13;3.30;;;10.40;67.00;;;8.85;69.42;102234.72;8447189;28;20123;-78
2021/12/13 12:46:30;;;;;;;4.05;2.95;;;10.50;66.70;;;8.88;68.95;102232.94;8445429;28;20668;-79
2021/12/13 12:50:58;;;;;;;4.22;3.40;;;10.60;66.80;;;8.93;69.38;102242.34;8441010;28;20028;-80
2021/12/13 12:55:49;;;;;;;3.60;3.10;;;10.60;66.80;;;8.97;69.35;102250.97;8446092;28;20126;-79
2021/12/13 13:00:12;;;;;;;4.45;3.30;;;10.60;67.00;;;9.01;69.70;102250.84;8435583;28;20036;-79
2021/12/13 13:04:48;;;;;;;4.65;3.58;;;10.70;67.00;;;9.00;69.04;102241.31;8436905;28;20031;-79
2021/12/13 13:09:10;;;;;;;;;;;10.60;67.00;;;9.02;69.36;102234.34;8438046;28;20035;-78
2021/12/13 13:13:40;;;;;;;3.67;2.85;;;10.80;67.10;;;8.95;69.43;102211.06;8441555;28;20006;-80
2021/12/13 13:18:10;;;;;;;5.68;3.83;;;10.80;66.80;;;9.12;69.51;102245.38;8429523;28;20036;-79
2021/12/13 13:22:38;;;;;;;5.95;3.40;;;10.80;66.90;;;9.11;69.11;102233.25;8446004;28;20492;-80
2021/12/13 13:27:00;;;;;;;4.22;3.53;;;10.80;66.90;;;9.18;69.47;102240.03;8436513;28;20027;-81
2021/12/13 13:31:32;;;;;;;3.97;3.33;;;10.90;66.90;;;9.20;69.38;102240.81;8430807;28;20437;-79
2021/12/13 13:35:54;;;;;;;5.95;3.95;;;10.90;66.90;;;9.29;69.37;102252.78;8430290;28;20511;-80
2021/12/13 13:40:23;;;;;;;4.45;3.53;;;10.90;66.90;;;9.33;69.38;102251.81;8432094;28;20488;-79
2021/12/13 13:44:55;;;;;;;4.28;2.92;;;11.00;67.00;;;9.30;69.70;102247.53;8436749;28;20031;-81
2021/12/13 13:49:21;;;;;;;4.57;3.20;;;11.00;67.00;;;9.31;69.16;102246.63;8435251;28;20153;-81
2021/12/13 13:53:53;;;;;;;5.35;3.47;;;11.00;66.90;;;9.32;68.96;102239.69;8437593;28;20051;-81
2021/12/13 13:58:24;;;;;;;5.93;3.13;;;11.10;67.10;;;9.37;69.51;102255.19;8437359;28;20058;-81
2021/12/13 14:02:46;;;;;;;5.38;3.80;;;11.10;67.00;;;9.43;69.24;102255.91;8434934;28;20126;-78
2021/12/13 14:07:19;;;;;;;3.83;3.45;;;11.10;66.90;;;9.38;69.26;102249.09;8432329;28;20039;-79
2021/12/13 14:12:03;;;;;;;4.65;3.38;;;11.10;67.00;;;9.49;69.57;102265.31;8443921;28;20134;-79
2021/12/13 14:16:28;;;;;;;3.95;3.17;;;11.20;66.90;;;9.49;69.24;102270.53;8428523;28;20118;-81
2021/12/13 14:20:59;;;;;;;3.65;2.92;;;11.20;66.90;;;9.52;69.33;102270.44;8451706;28;20378;-80
2021/12/13 14:25:36;;;;;;;3.75;3.30;;;11.20;66.90;;;9.50;69.39;102272.22;8430695;28;20140;-78
2021/12/13 14:30:16;;;;;;;4.82;4.00;;;11.20;66.90;;;9.50;69.38;102270.50;8430546;28;20045;-80
2021/12/13 14:34:39;;;;;;;5.35;3.92;;;11.20;66.90;;;9.56;68.92;102277.31;8439521;28;20036;-80
2021/12/13 14:39:21;;;;;;;3.92;3.55;;;11.20;66.80;;;9.59;69.52;102287.66;8445091;28;20032;-80
2021/12/13 14:43:59;;;;;;;5.72;5.15;;;11.20;66.90;;;9.44;69.63;102256.75;8438532;28;20046;-79
2021/12/13 14:48:27;;;;;;;6.15;4.68;;;11.30;67.70;;;9.56;69.29;102279.91;8442150;28;20590;-79
2021/12/13 14:52:57;;;;;;;5.90;5.30;;;11.30;66.90;;;9.64;69.32;102293.59;8448971;28;20039;-79
2021/12/13 14:57:25;;;;;;;8.05;6.05;;;11.30;66.90;;;9.66;69.45;102297.00;8423820;28;20032;-78
2021/12/13 15:01:50;;;;;;;5.78;4.80;;;11.30;66.90;;;9.64;69.40;102291.00;8437905;28;20032;-79
2021/12/13 15:06:20;;;;;;;8.13;4.68;;;11.30;66.90;;;9.65;69.34;102292.69;8448378;27;20396;-79
2021/12/13 15:10:56;;;;;;;5.53;4.55;;;11.30;66.90;;;9.62;69.23;102279.75;8431555;28;20051;-79
2021/12/13 15:15:34;;;;;;;5.82;4.70;;;11.30;66.80;;;9.71;69.24;102294.28;8442293;28;20114;-79
2021/12/13 15:20:06;;;;;;;5.38;4.82;;;11.30;66.80;;;9.71;69.49;102297.75;8448728;28;20065;-80
2021/12/13 15:24:34;;;;;;;7.65;6.28;;;11.30;66.70;;;9.74;69.56;102294.19;8451586;28;20123;-80
2021/12/13 15:29:15;;;;;;;6.55;5.47;;;11.30;66.70;;;9.72;69.03;102294.25;8447830;28;20039;-80
2021/12/13 15:33:42;;;;;;;8.05;5.78;;;11.30;66.70;;;9.72;69.78;102299.47;8444062;28;20532;-80
2021/12/13 15:38:12;;;;;;;7.60;5.78;;;11.40;66.70;;;9.72;68.96;102296.00;8444143;28;20036;-80
2021/12/13 15:42:37;;;;;;;5.57;4.65;;;11.30;66.60;;;9.71;69.32;102292.53;8445488;28;20127;-81
2021/12/13 15:46:59;;;;;;;8.50;5.72;;;11.40;66.70;;;9.74;69.16;102302.03;8440263;28;20048;-80
2021/12/13 15:51:47;;;;;;;10.02;7.30;;;11.40;66.60;;;9.71;69.31;102308.19;8442421;28;20430;-80
2021/12/13 15:56:15;;;;;;;6.78;5.40;;;11.40;66.70;;;9.69;68.89;102303.91;8428755;28;20057;-81
2021/12/13 16:00:38;;;;;;;5.90;4.60;;;11.40;66.70;;;9.77;69.06;102311.53;8419550;28;20034;-81
2021/12/13 16:05:21;;;;;;;5.10;4.40;;;11.40;66.70;;;9.74;68.97;102310.72;8427307;28;20135;-81
2021/12/13 16:09:48;;;;;;;4.78;3.80;;;11.40;66.90;;;9.81;68.94;102314.03;8450059;28;20477;-81
2021/12/13 16:14:32;;;;;;;4.68;3.40;;;11.30;66.70;;;9.69;69.48;102296.06;8434677;28;20555;-82
2021/12/13 16:18:55;;;;;;;3.97;3.53;;;11.40;67.00;;;9.84;69.63;102319.16;8435662;28;20386;-81
2021/12/13 16:23:24;;;;;;;6.10;4.47;;;11.40;66.80;;;9.85;69.32;102320.00;8445690;28;20494;-81
2021/12/13 16:28:04;;;;;;;6.85;4.63;;;11.50;67.00;;;9.88;69.59;102322.53;8440678;28;20039;-80
2021/12/13 16:32:25;;;;;;;5.68;4.10;;;11.50;67.10;;;9.88;69.45;102319.91;8419383;28;20119;-80
2021/12/13 16:36:56;;;;;;;4.22;3.70;;;11.50;66.90;;;9.84;69.70;102313.94;8464931;22;20138;-91
2021/12/13 16:41:22;;;;;;;4.75;3.63;;;11.50;67.00;;;9.89;69.37;102313.81;8451082;27;20118;-91
2021/12/13 16:45:48;;;;;;;;;;;11.50;67.00;;;9.78;69.02;102290.63;8422877;27;20143;-90
2021/12/13 16:50:10;;;;;;;3.53;3.23;;;11.60;67.10;;;9.84;69.38;102303.50;8388422;28;20379;-93
2021/12/13 16:54:38;;;;;;;3.67;2.67;;;11.50;66.70;;;9.80;69.16;102301.00;8361141;28;20275;-88
2021/12/13 16:59:00;;;;;;;4.55;4.10;;;11.50;66.90;;;9.92;69.01;102322.41;8363954;28;20039;-90
2021/12/13 17:03:29;;;;;;;4.68;4.10;;;11.60;67.10;;;9.97;69.46;102324.91;8387168;28;20035;-90
2021/12/13 17:07:54;;;;;;;5.65;4.43;;;11.50;67.20;;;10.02;69.33;102328.25;8394147;28;20040;-91
2021/12/13 17:12:15;;;;;;;5.40;4.77;;;11.60;67.60;;;10.02;69.70;102330.00;8405218;28;20039;-90
2021/12/13 17:17:07;;;;;;;3.92;3.53;;;11.60;67.70;;;10.04;69.91;102336.88;8387029;28;20036;-92
2021/12/13 17:21:37;;;;;;;4.50;4.05;;;11.50;67.90;;;10.16;69.21;102351.38;8402580;28;20036;-91
2021/12/13 17:26:35;;;;;;;4.03;3.63;;;11.70;68.20;;;10.07;69.57;102333.34;8381946;28;20028;-90
2021/12/13 17:30:56;;;;;;;4.43;3.45;;;11.80;68.60;;;10.19;69.44;102352.13;8384534;28;20043;-89
2021/12/13 17:35:23;;;;;;;3.55;3.03;;;11.90;68.40;;;10.24;69.90;102348.56;8406434;28;20407;-90
2021/12/13 17:39:53;;;;;;;5.40;3.10;;;11.90;68.60;;;10.38;70.04;102356.88;8391936;28;20040;-91
2021/12/13 17:44:15;;;;;;;3.13;2.83;;;11.90;68.60;;;10.42;69.07;102366.31;8388467;28;20036;-91
2021/12/13 17:48:54;;;;;;;3.17;2.72;;;12.00;68.70;;;10.27;69.48;102333.69;8417850;28;20039;-92
2021/12/13 17:53:21;;;;;;;2.63;2.13;;;11.90;68.70;;;10.52;69.22;102359.09;8396333;28;20036;-90
2021/12/13 17:57:46;;;;;;;2.35;2.10;;;12.00;68.50;;;10.49;69.88;102354.81;8436052;28;20044;-90
2021/12/13 18:02:13;;;;;;;2.72;2.40;;;12.10;68.50;;;10.43;69.89;102330.66;8410167;28;20043;-90
2021/12/13 18:06:56;;;;;;;2.22;2.05;;;12.20;68.40;;;10.60;69.98;102357.97;8422563;28;20532;-89
2021/12/13 18:11:18;;;;;;;2.55;2.20;;;12.20;68.40;;;10.61;69.35;102361.44;8423807;28;20719;-90
2021/12/13 18:15:49;;;;;;;3.75;2.38;;;12.30;68.10;;;10.56;69.47;102358.13;8408663;28;20043;-90
2021/12/13 18:20:19;;;;;;;3.53;2.63;;;12.20;68.00;;;10.61;69.64;102359.72;8423784;28;20039;-90
2021/12/13 18:24:40;;;;;;;3.30;2.38;;;12.20;67.80;;;10.51;69.60;102342.59;8401197;28;20036;-91
2021/12/13 18:29:08;;;;;;;3.03;2.22;;;12.30;67.70;;;10.65;69.32;102362.22;8400574;28;20044;-90
2021/12/13 18:34:04;;;;;;;2.70;2.25;;;12.40;67.70;;;10.49;69.28;102344.38;8406908;28;20046;-90
2021/12/13 18:38:34;;;;;;;3.33;2.75;;;12.20;67.70;;;10.64;69.18;102356.16;8408874;28;20036;-91
2021/12/13 18:43:04;;;;;;;2.33;2.13;;;12.30;67.50;;;10.52;69.69;102333.84;8432984;28;20062;-90
2021/12/13 18:47:27;;;;;;;2.47;2.15;;;12.30;67.50;;;10.36;69.32;102306.44;8382994;28;20028;-90
2021/12/13 18:51:55;;;;;;;4.97;2.92;;;12.20;67.30;;;10.60;69.75;102350.13;8402549;28;20695;-90
2021/12/13 18:56:22;;;;;;;4.85;3.35;;;12.20;67.20;;;10.59;69.51;102355.44;8416142;28;20038;-90
2021/12/13 19:01:03;;;;;;;3.83;3.10;;;12.50;67.40;;;10.55;69.60;102352.03;8387206;28;20496;-90
2021/12/13 19:05:56;;;;;;;3.88;2.80;;;12.20;67.20;;;10.48;69.72;102345.28;8400898;28;20035;-90
2021/12/13 19:10:21;;;;;;;4.18;3.40;;;12.20;67.20;;;10.53;69.75;102350.34;8384789;28;20540;-90
2021/12/13 19:14:57;;;;;;;3.63;3.17;;;12.10;67.00;;;10.40;69.27;102332.44;8379228;28;20039;-90
2021/12/13 19:19:37;;;;;;;;;;;12.10;67.00;;;10.54;69.55;102354.69;8391748;28;20048;-90